createdAt,value
2018-06-17T05:34:27.136Z,55.5
2018-06-17T05:35:17.523Z,55.5
2018-06-17T05:36:07.020Z,55.5
2018-06-17T05:36:57.070Z,55.5
2018-06-17T05:37:47.410Z,55.5
2018-06-17T05:38:37.492Z,55.5
2018-06-17T05:39:27.299Z,55.5
2018-06-17T05:40:17.879Z,55.5
2018-06-17T05:41:07.632Z,55.5
2018-06-17T05:41:58.041Z,55.4
2018-06-17T05:42:48.155Z,55.4
2018-06-17T05:43:38.192Z,55.4
2018-06-17T05:44:27.748Z,55.4
2018-06-17T05:45:18.247Z,55.4
2018-06-17T05:46:08.072Z,55.4
2018-06-17T05:46:58.437Z,55.4
2018-06-17T05:47:48.512Z,55.4
2018-06-17T05:48:38.516Z,55.4
2018-06-17T05:49:28.546Z,55.4
2018-06-17T05:50:18.609Z,55.4
2018-06-17T05:51:08.427Z,55.4
2018-06-17T05:51:58.733Z,55.4
2018-06-17T05:52:48.823Z,55.4
2018-06-17T05:53:38.911Z,55.4
2018-06-17T05:54:28.968Z,55.4
2018-06-17T05:55:18.986Z,55.4
2018-06-17T05:56:09.081Z,55.3
2018-06-17T05:56:58.874Z,55.3
2018-06-17T05:57:49.220Z,55.3
2018-06-17T05:58:39.364Z,55.3
2018-06-17T05:59:28.802Z,55.3
2018-06-17T06:00:19.440Z,55.3
2018-06-17T06:01:09.475Z,55.3
2018-06-17T06:01:59.510Z,55.3
2018-06-17T06:02:49.667Z,55.3
2018-06-17T06:03:39.373Z,55.3
2018-06-17T06:04:29.195Z,55.3
2018-06-17T06:05:19.744Z,55.3
2018-06-17T06:06:09.870Z,55.3
2018-06-17T06:06:59.673Z,55.3
2018-06-17T06:07:49.422Z,55.3
2018-06-17T06:08:40.046Z,55.3
2018-06-17T06:09:29.597Z,55.3
2018-06-17T06:10:20.378Z,55.2
2018-06-17T06:11:09.665Z,55.3
2018-06-17T06:11:59.870Z,55.3
2018-06-17T06:12:49.767Z,55.2
2018-06-17T06:13:39.607Z,55.2
2018-06-17T06:14:30.004Z,55.2
2018-06-17T06:15:19.525Z,55.2
2018-06-17T06:16:10.157Z,55.2
2018-06-17T06:16:59.623Z,55.2
2018-06-17T06:17:50.480Z,55.2
2018-06-17T06:18:39.407Z,55.2
2018-06-17T06:19:30.406Z,55.1
2018-06-17T06:20:20.210Z,55.1
2018-06-17T06:21:10.501Z,55.1
2018-06-17T06:22:00.025Z,55.1
2018-06-17T06:22:50.623Z,55.1
2018-06-17T06:23:41.162Z,55.1
2018-06-17T06:24:30.447Z,55.1
2018-06-17T06:25:20.476Z,55.1
2018-06-17T06:26:10.832Z,55.1
2018-06-17T06:27:00.576Z,55.1
2018-06-17T06:27:51.282Z,55.1
2018-06-17T06:28:40.737Z,55.1
2018-06-17T06:29:31.389Z,55.1
2018-06-17T06:30:21.709Z,55.1
2018-06-17T06:31:11.513Z,55.1
2018-06-17T06:32:01.825Z,55.1
2018-06-17T06:32:51.870Z,55
2018-06-17T06:33:41.929Z,55
2018-06-17T06:34:31.979Z,55
2018-06-17T06:35:22.030Z,55
2018-06-17T06:36:12.104Z,55
2018-06-17T06:37:01.370Z,55
2018-06-17T06:37:52.246Z,55
2018-06-17T06:38:41.754Z,55
2018-06-17T06:39:32.091Z,54.9
2018-06-17T06:40:22.130Z,54.9
2018-06-17T06:41:12.234Z,55
2018-06-17T06:42:02.549Z,54.9
2018-06-17T06:42:52.746Z,54.9
2018-06-17T06:43:42.679Z,54.9
2018-06-17T06:44:32.480Z,54.9
2018-06-17T06:45:22.031Z,54.9
2018-06-17T06:46:12.872Z,54.9
2018-06-17T06:47:02.709Z,54.9
2018-06-17T06:47:52.739Z,54.9
2018-06-17T06:48:42.785Z,54.9
2018-06-17T06:49:32.845Z,54.9
2018-06-17T06:50:23.204Z,54.9
2018-06-17T06:51:13.241Z,54.9
2018-06-17T06:52:02.224Z,54.9
2018-06-17T06:52:52.903Z,54.9
2018-06-17T06:53:42.931Z,54.9
2018-06-17T06:54:33.511Z,54.9
2018-06-17T06:55:23.056Z,54.8
2018-06-17T06:56:12.828Z,54.9
2018-06-17T06:57:03.770Z,54.9
2018-06-17T06:57:53.813Z,54.8
2018-06-17T06:58:43.614Z,54.8
2018-06-17T06:59:33.350Z,54.8
2018-06-17T07:00:22.843Z,54.8
2018-06-17T07:01:13.518Z,54.8
2018-06-17T07:02:03.355Z,54.8
2018-06-17T07:02:53.600Z,54.8
2018-06-17T07:03:43.394Z,54.8
2018-06-17T07:04:33.995Z,54.8
2018-06-17T07:05:24.140Z,54.8
2018-06-17T07:06:13.850Z,54.8
2018-06-17T07:07:04.227Z,54.8
2018-06-17T07:07:54.515Z,54.8
2018-06-17T07:08:44.620Z,54.8
2018-06-17T07:09:34.083Z,54.8
2018-06-17T07:10:24.159Z,54.8
2018-06-17T07:11:14.227Z,54.8
2018-06-17T07:12:04.863Z,54.8
2018-06-17T07:12:54.887Z,54.8
2018-06-17T07:13:44.136Z,54.8
2018-06-17T07:14:35.007Z,54.8
2018-06-17T07:15:24.540Z,54.7
2018-06-17T07:16:14.731Z,54.7
2018-06-17T07:17:05.258Z,54.7
2018-06-17T07:17:54.449Z,54.7
2018-06-17T07:18:45.359Z,54.7
2018-06-17T07:19:35.408Z,54.6
2018-06-17T07:20:25.161Z,54.7
2018-06-17T07:21:15.327Z,54.7
2018-06-17T07:22:04.871Z,54.7
2018-06-17T07:22:55.149Z,54.7
2018-06-17T07:23:45.736Z,54.6
2018-06-17T07:24:35.769Z,54.6
2018-06-17T07:25:25.604Z,54.6
2018-06-17T07:26:15.336Z,54.6
2018-06-17T07:27:05.161Z,54.6
2018-06-17T07:27:55.520Z,54.6
2018-06-17T07:28:45.785Z,54.6
2018-06-17T07:29:35.635Z,54.6
2018-06-17T07:30:25.934Z,54.6
2018-06-17T07:31:15.992Z,54.6
2018-06-17T07:32:06.110Z,54.6
2018-06-17T07:32:56.412Z,54.6
2018-06-17T07:33:46.289Z,54.6
2018-06-17T07:34:36.278Z,54.6
2018-06-17T07:35:26.077Z,54.6
2018-06-17T07:36:16.142Z,54.6
2018-06-17T07:37:06.827Z,54.6
2018-06-17T07:37:56.554Z,54.6
2018-06-17T07:38:46.868Z,54.5
2018-06-17T07:39:36.098Z,54.5
2018-06-17T07:40:27.049Z,54.5
2018-06-17T07:41:16.772Z,54.5
2018-06-17T07:42:06.005Z,54.5
2018-06-17T07:42:57.216Z,54.5
2018-06-17T07:43:47.741Z,54.5
2018-06-17T07:44:37.365Z,54.5
2018-06-17T07:45:26.805Z,54.5
2018-06-17T07:46:17.155Z,54.5
2018-06-17T07:47:07.508Z,54.5
2018-06-17T07:47:56.732Z,54.4
2018-06-17T07:48:47.370Z,54.5
2018-06-17T07:49:37.460Z,54.5
2018-06-17T07:50:27.174Z,54.4
2018-06-17T07:51:17.284Z,54.4
2018-06-17T07:52:07.381Z,54.4
2018-06-17T07:52:57.651Z,54.4
2018-06-17T07:53:47.751Z,54.4
2018-06-17T07:54:38.060Z,54.4
2018-06-17T07:55:27.888Z,54.4
2018-06-17T07:56:17.666Z,54.4
2018-06-17T07:57:08.361Z,54.4
2018-06-17T07:57:58.124Z,54.4
2018-06-17T07:58:48.405Z,54.4
2018-06-17T07:59:37.925Z,54.4
2018-06-17T08:00:28.493Z,54.4
2018-06-17T08:01:18.595Z,54.4
2018-06-17T08:02:08.355Z,54.4
2018-06-17T08:02:57.914Z,54.4
2018-06-17T08:03:48.784Z,54.4
2018-06-17T08:04:38.802Z,54.4
2018-06-17T08:05:28.615Z,54.4
2018-06-17T08:06:18.671Z,54.3
2018-06-17T08:07:09.033Z,54.3
2018-06-17T08:07:59.060Z,54.3
2018-06-17T08:08:49.182Z,54.3
2018-06-17T08:09:39.206Z,54.3
2018-06-17T08:10:29.265Z,54.3
2018-06-17T08:11:19.380Z,54.3
2018-06-17T08:12:09.137Z,54.3
2018-06-17T08:12:59.472Z,54.3
2018-06-17T08:13:49.507Z,54.3
2018-06-17T08:14:39.621Z,54.3
2018-06-17T08:15:29.377Z,54.3
2018-06-17T08:16:19.724Z,54.3
2018-06-17T08:17:09.538Z,54.3
2018-06-17T08:17:59.306Z,54.3
2018-06-17T08:18:49.927Z,54.3
2018-06-17T08:19:39.968Z,54.3
2018-06-17T08:20:29.489Z,54.3
2018-06-17T08:21:20.136Z,54.3
2018-06-17T08:22:09.633Z,54.3
2018-06-17T08:22:59.978Z,54.2
2018-06-17T08:23:50.043Z,54.3
2018-06-17T08:24:40.394Z,54.2
2018-06-17T08:25:29.879Z,54.2
2018-06-17T08:26:20.195Z,54.2
2018-06-17T08:27:10.529Z,54.2
2018-06-17T08:28:00.613Z,54.2
2018-06-17T08:28:49.855Z,54.2
2018-06-17T08:29:40.730Z,54.2
2018-06-17T08:30:31.107Z,54.2
2018-06-17T08:31:20.595Z,54.2
2018-06-17T08:32:10.104Z,54.1
2018-06-17T08:33:00.990Z,54.1
2018-06-17T08:33:51.071Z,54.2
2018-06-17T08:34:40.579Z,54.1
2018-06-17T08:35:31.232Z,54.1
2018-06-17T08:36:21.311Z,54.1
2018-06-17T08:37:11.074Z,54.1
2018-06-17T08:38:01.154Z,54.1
2018-06-17T08:38:50.603Z,54.1
2018-06-17T08:39:40.664Z,54.1
2018-06-17T08:40:31.074Z,54.1
2018-06-17T08:41:21.631Z,54.1
2018-06-17T08:42:11.450Z,54.1
2018-06-17T08:43:01.519Z,54.1
2018-06-17T08:43:50.784Z,54.1
2018-06-17T08:44:41.930Z,54.1
2018-06-17T08:45:30.896Z,54.1
2018-06-17T08:46:22.059Z,54.1
2018-06-17T08:47:12.125Z,54.1
2018-06-17T08:48:02.164Z,54.1
2018-06-17T08:48:52.210Z,54.1
2018-06-17T08:49:42.013Z,54.1
2018-06-17T08:50:32.066Z,54.1
2018-06-17T08:51:21.833Z,54.1
2018-06-17T08:52:12.207Z,54.1
2018-06-17T08:53:02.541Z,54
2018-06-17T08:53:52.035Z,54
2018-06-17T08:54:42.372Z,54
2018-06-17T08:55:32.713Z,54
2018-06-17T08:56:22.008Z,54
2018-06-17T08:57:12.308Z,54
2018-06-17T08:58:02.376Z,53.9
2018-06-17T08:58:52.190Z,53.9
2018-06-17T08:59:42.492Z,53.9
2018-06-17T09:00:32.047Z,53.9
2018-06-17T09:01:22.875Z,54
2018-06-17T09:02:13.257Z,54.1
2018-06-17T09:03:03.345Z,54.1
2018-06-17T09:03:53.473Z,54.1
2018-06-17T09:04:43.445Z,54.2
2018-06-17T09:05:33.516Z,54.3
2018-06-17T09:06:22.984Z,54.3
2018-06-17T09:07:13.323Z,54.4
2018-06-17T09:08:03.484Z,54.5
2018-06-17T09:08:53.490Z,54.5
2018-06-17T09:09:43.828Z,54.6
2018-06-17T09:10:33.331Z,54.7
2018-06-17T09:11:23.396Z,54.7
2018-06-17T09:12:14.087Z,54.8
2018-06-17T09:13:03.805Z,54.9
2018-06-17T09:13:54.123Z,54.9
2018-06-17T09:14:44.188Z,54.9
2018-06-17T09:15:34.252Z,55.1
2018-06-17T09:16:23.307Z,55.1
2018-06-17T09:17:14.403Z,55.2
2018-06-17T09:18:04.486Z,55.3
2018-06-17T09:18:54.243Z,55.4
2018-06-17T09:19:44.399Z,55.4
2018-06-17T09:20:34.554Z,55.5
2018-06-17T09:21:24.438Z,55.6
2018-06-17T09:22:14.259Z,55.6
2018-06-17T09:23:04.567Z,55.6
2018-06-17T09:23:54.130Z,55.6
2018-06-17T09:24:44.696Z,55.6
2018-06-17T09:25:35.073Z,55.7
2018-06-17T09:26:25.087Z,55.8
2018-06-17T09:27:14.876Z,55.8
2018-06-17T09:28:05.281Z,55.9
2018-06-17T09:28:54.784Z,55.9
2018-06-17T09:29:45.354Z,56
2018-06-17T09:30:35.409Z,56
2018-06-17T09:31:25.509Z,56.1
2018-06-17T09:32:16.340Z,56.1
2018-06-17T09:33:05.133Z,56.2
2018-06-17T09:33:54.872Z,56.3
2018-06-17T09:34:45.732Z,56.3
2018-06-17T09:35:35.837Z,56.4
2018-06-17T09:36:25.056Z,56.4
2018-06-17T09:37:15.937Z,56.6
2018-06-17T09:38:05.870Z,56.7
2018-06-17T09:38:55.619Z,56.8
2018-06-17T09:39:46.127Z,56.8
2018-06-17T09:40:36.193Z,56.8
2018-06-17T09:41:26.026Z,56.9
2018-06-17T09:42:16.038Z,56.9
2018-06-17T09:43:06.379Z,57.1
2018-06-17T09:43:55.605Z,57.1
2018-06-17T09:44:46.510Z,57.2
2018-06-17T09:45:35.488Z,57.3
2018-06-17T09:46:26.707Z,57.3
2018-06-17T09:47:16.702Z,57.4
2018-06-17T09:48:05.960Z,57.4
2018-06-17T09:48:56.600Z,57.4
2018-06-17T09:49:46.352Z,57.5
2018-06-17T09:50:36.930Z,57.6
2018-06-17T09:51:27.022Z,57.6
2018-06-17T09:52:17.125Z,57.6
2018-06-17T09:53:56.947Z,57.8
2018-06-17T09:54:47.309Z,57.8
2018-06-17T09:55:37.101Z,57.9
2018-06-17T09:56:27.173Z,57.9
2018-06-17T09:57:16.937Z,57.9
2018-06-17T09:58:07.551Z,58
2018-06-17T09:58:57.324Z,58
2018-06-17T09:59:47.751Z,58
2018-06-17T10:00:37.477Z,58.1
2018-06-17T10:01:27.726Z,58.1
2018-06-17T10:02:17.024Z,58.3
2018-06-17T10:03:07.657Z,58.3
2018-06-17T10:03:57.237Z,58.4
2018-06-17T10:04:48.051Z,58.4
2018-06-17T10:05:37.849Z,58.5
2018-06-17T10:07:18.283Z,58.7
2018-06-17T10:08:07.474Z,58.8
2018-06-17T10:08:58.490Z,58.9
2018-06-17T10:09:48.172Z,58.9
2018-06-17T10:10:38.530Z,59
2018-06-17T10:11:28.603Z,59
2018-06-17T10:12:18.612Z,59.2
2018-06-17T10:13:08.436Z,59.2
2018-06-17T10:13:58.770Z,59.3
2018-06-17T10:14:48.631Z,59.4
2018-06-17T10:15:38.296Z,59.5
2018-06-17T10:16:28.678Z,59.6
2018-06-17T10:17:19.030Z,59.6
2018-06-17T10:18:09.071Z,59.7
2018-06-17T10:18:58.616Z,59.8
2018-06-17T10:19:48.942Z,59.8
2018-06-17T10:20:39.325Z,59.9
2018-06-17T10:21:29.323Z,59.9
2018-06-17T10:22:19.398Z,60
2018-06-17T10:23:09.505Z,60.1
2018-06-17T10:23:58.964Z,60.2
2018-06-17T10:24:49.607Z,60.3
2018-06-17T10:25:39.124Z,60.3
2018-06-17T10:26:29.475Z,60.3
2018-06-17T10:27:19.501Z,60.4
2018-06-17T10:28:09.292Z,60.4
2018-06-17T10:28:59.913Z,60.4
2018-06-17T10:29:49.984Z,60.4
2018-06-17T10:30:39.825Z,60.4
2018-06-17T10:31:29.567Z,60.4
2018-06-17T10:32:19.660Z,60.4
2018-06-17T10:33:09.957Z,60.4
2018-06-17T10:33:59.281Z,60.4
2018-06-17T10:34:49.802Z,60.4
2018-06-17T10:35:39.888Z,60.4
2018-06-17T10:36:30.257Z,60.4
2018-06-17T10:37:20.304Z,60.4
2018-06-17T10:38:10.981Z,60.4
2018-06-17T10:39:00.166Z,60.4
2018-06-17T10:39:50.507Z,60.4
2018-06-17T10:40:40.259Z,60.4
2018-06-17T10:41:30.890Z,60.4
2018-06-17T10:42:20.952Z,60.4
2018-06-17T10:43:10.421Z,60.4
2018-06-17T10:44:00.511Z,60.4
2018-06-17T10:44:50.863Z,60.4
2018-06-17T10:45:41.209Z,60.4
2018-06-17T10:46:31.257Z,60.4
2018-06-17T10:47:20.436Z,60.4
2018-06-17T10:48:10.831Z,60.4
2018-06-17T10:49:01.709Z,60.4
2018-06-17T10:49:51.034Z,60.4
2018-06-17T10:50:41.514Z,60.4
2018-06-17T10:51:31.685Z,60.4
2018-06-17T10:52:21.175Z,60.4
2018-06-17T10:53:11.850Z,60.4
2018-06-17T10:54:01.834Z,60.4
2018-06-17T10:54:51.667Z,60.4
2018-06-17T10:55:42.823Z,60.4
2018-06-17T10:56:32.056Z,60.4
2018-06-17T10:57:21.566Z,60.4
2018-06-17T10:58:11.631Z,60.4
2018-06-17T10:59:01.139Z,60.4
2018-06-17T10:59:52.272Z,60.4
2018-06-17T11:00:42.319Z,60.4
2018-06-17T11:01:31.595Z,60.4
2018-06-17T11:02:21.741Z,60.4
2018-06-17T11:03:11.750Z,60.3
2018-06-17T11:04:02.607Z,60.3
2018-06-17T11:04:52.393Z,60.4
2018-06-17T11:05:44.404Z,60.3
2018-06-17T11:06:32.547Z,60.3
2018-06-17T11:07:22.859Z,60.3
2018-06-17T11:08:12.967Z,60.3
2018-06-17T11:09:03.019Z,60.3
2018-06-17T11:09:52.835Z,60.3
2018-06-17T11:10:42.862Z,60.3
2018-06-17T11:11:32.654Z,60.3
2018-06-17T11:12:23.016Z,60.3
2018-06-17T11:13:13.617Z,60.3
2018-06-17T11:14:02.849Z,60.3
2018-06-17T11:14:53.464Z,60.3
2018-06-17T11:15:43.247Z,60.3
2018-06-17T11:16:32.476Z,60.3
2018-06-17T11:17:23.388Z,60.3
2018-06-17T11:18:13.935Z,60.3
2018-06-17T11:19:03.497Z,60.3
2018-06-17T11:19:53.583Z,60.3
2018-06-17T11:20:43.385Z,60.3
2018-06-17T11:21:33.967Z,60.3
2018-06-17T11:22:24.069Z,60.3
2018-06-17T11:23:13.870Z,60.3
2018-06-17T11:24:03.656Z,60.3
2018-06-17T11:24:53.395Z,60.3
2018-06-17T11:25:43.726Z,60.3
2018-06-17T11:26:34.108Z,60.2
2018-06-17T11:27:23.866Z,60.3
2018-06-17T11:28:14.207Z,60.2
2018-06-17T11:29:03.727Z,60.2
2018-06-17T11:29:54.031Z,60.2
2018-06-17T11:30:44.666Z,60.2
2018-06-17T11:31:34.716Z,60.2
2018-06-17T11:32:24.276Z,60.2
2018-06-17T11:33:14.328Z,60.2
2018-06-17T11:34:04.384Z,60.2
2018-06-17T11:34:54.706Z,60.1
2018-06-17T11:35:45.083Z,60.2
2018-06-17T11:36:35.138Z,60.2
2018-06-17T11:37:24.906Z,60.2
2018-06-17T11:38:14.680Z,60.1
2018-06-17T11:39:06.796Z,60.1
2018-06-17T11:39:55.173Z,60.1
2018-06-17T11:40:45.414Z,60.1
2018-06-17T11:41:35.270Z,60.1
2018-06-17T11:42:25.355Z,60.1
2018-06-17T11:43:15.363Z,60.1
2018-06-17T11:44:05.761Z,60.1
2018-06-17T11:44:55.508Z,60.1
2018-06-17T11:45:45.898Z,60.1
2018-06-17T11:46:35.615Z,60.1
2018-06-17T11:47:25.660Z,60.1
2018-06-17T11:48:16.021Z,60.1
2018-06-17T11:49:05.527Z,60.1
2018-06-17T11:49:55.589Z,60.1
2018-06-17T11:50:45.934Z,60.1
2018-06-17T11:51:35.699Z,60.1
2018-06-17T11:52:25.531Z,60.1
2018-06-17T11:53:15.834Z,60.1
2018-06-17T11:54:06.199Z,60.1
2018-06-17T11:54:55.997Z,60.1
2018-06-17T11:55:46.040Z,60
2018-06-17T11:56:36.097Z,60
2018-06-17T11:57:26.438Z,60.1
2018-06-17T11:58:16.275Z,60
2018-06-17T11:59:06.380Z,60
2018-06-17T11:59:56.698Z,60
2018-06-17T12:00:47.005Z,60
2018-06-17T12:01:37.088Z,60
2018-06-17T12:02:27.117Z,60
2018-06-17T12:03:16.618Z,60
2018-06-17T12:04:06.669Z,59.9
2018-06-17T12:04:56.989Z,60
2018-06-17T12:05:47.364Z,59.9
2018-06-17T12:06:37.409Z,60
2018-06-17T12:07:27.496Z,59.9
2018-06-17T12:08:17.548Z,59.9
2018-06-17T12:09:07.090Z,59.9
2018-06-17T12:09:57.424Z,59.9
2018-06-17T12:10:47.754Z,59.9
2018-06-17T12:11:37.784Z,59.9
2018-06-17T12:12:27.847Z,59.9
2018-06-17T12:13:17.935Z,59.9
2018-06-17T12:14:07.995Z,59.9
2018-06-17T12:14:57.537Z,59.9
2018-06-17T12:15:48.124Z,59.9
2018-06-17T12:16:37.644Z,59.9
2018-06-17T12:17:28.239Z,59.9
2018-06-17T12:18:18.344Z,59.9
2018-06-17T12:19:08.367Z,59.9
2018-06-17T12:19:58.238Z,59.9
2018-06-17T12:20:48.509Z,59.9
2018-06-17T12:21:38.299Z,59.9
2018-06-17T12:22:28.656Z,59.9
2018-06-17T12:23:18.457Z,59.9
2018-06-17T12:24:08.019Z,59.9
2018-06-17T12:24:58.351Z,59.8
2018-06-17T12:25:48.928Z,59.9
2018-06-17T12:26:38.689Z,59.9
2018-06-17T12:27:28.537Z,59.8
2018-06-17T12:28:18.816Z,59.8
2018-06-17T12:29:08.575Z,59.8
2018-06-17T12:29:58.939Z,59.8
2018-06-17T12:30:48.889Z,59.8
2018-06-17T12:31:39.328Z,59.8
2018-06-17T12:32:29.158Z,59.8
2018-06-17T12:33:18.923Z,59.8
